首页
METAR-TAF:

METAR-TAF

机场 :

伊萨卡, 紐約州, 美国

纬度: 42-29N, 经度: 076-27W, 海拔: 335米

当前天气观测

该预报发布于12小时和20分钟前的20:56 UTC
风速7节,风向东转东南
温度 4°C
湿度 100%
气压 1014 hPa
能見度: 12.9公里
阴天层高于1000英尺
小雨

METAR: KITH 282056Z 11007KT 8SM -RA OVC010 04/04 A2994 RMK AO2 SLP146 P0000 60021 T00440044 56020

时间: 05:16 (09:16 UTC)

预报

该预报发布于34分钟前的08:42 UTC
预报有效从29日的 09点(UTC)到 30日的 06点(UTC)
风速9节,风向东南
能見度: 6.4公里
阴天层高于300英尺
轻雾
从 29日的 1600点(UTC)
风速16节,风向南转南东,有时为27节阵风
能見度: 10公里
阴天层高于2500英尺
从 30日的 0300点(UTC)
风速5节,风向北转西北
能見度: 10公里
阴天层高于5000英尺

TAF: KITH 290842Z 2909/3006 14009KT 4SM BR OVC003 FM291600 16016G27KT P6SM OVC025 FM300300 34005KT P6SM OVC050 AMD NOT SKED

超过4000个机场的气象观测和天气预报(METAR&TAF报告)。

可查询的气象台以黄色和红色小点在地图上表示。

将鼠标移到小点上方,可查看气象台名称。

然后点击查看天气观测和预报。

如需切换地图:点击带黑十字的绿色按钮放大地图;点击带横线的绿色按钮缩小地图;或者点击绿色箭头查看邻近地区的地图。


METAR-TAF: